Time,TemperatureF,DewpointF,PressureIn,WindDirection,WindDirectionDegrees,WindSpeedMPH,WindSpeedGustMPH,Humidity,HourlyPrecipIn,Conditions,Clouds,dailyrainin,SoftwareType,DateUTC
2013-02-08 00:01:00,32.0,23.0,-100.00,NNW,345,5.0,10.0,69,-99.99,,,-99.99,,2013-02-08 08:01:00,
2013-02-08 00:10:00,32.0,23.0,-100.00,NNW,340,3.0,12.0,69,-99.99,,,-99.99,,2013-02-08 08:10:00,
2013-02-08 01:03:00,32.0,23.0,-100.00,NNW,340,3.0,12.0,69,-99.99,,,-99.99,,2013-02-08 09:03:00,
2013-02-08 02:01:00,31.0,22.0,-100.00,NW,315,5.0,14.0,68,-99.99,,,-99.99,,2013-02-08 10:01:00,
2013-02-08 02:10:00,31.0,22.0,-100.00,NW,320,6.0,12.0,68,-99.99,,,-99.99,,2013-02-08 10:10:00,
2013-02-08 02:11:00,31.0,22.0,-100.00,NW,315,5.0,14.0,68,-99.99,,,-99.99,,2013-02-08 10:11:00,
2013-02-08 03:01:00,31.0,22.0,-100.00,NW,320,6.0,12.0,68,-99.99,,,-99.99,,2013-02-08 11:01:00,
2013-02-08 04:01:00,30.0,21.0,-100.00,WNW,295,7.0,12.0,68,-99.99,,,-99.99,,2013-02-08 12:01:00,
2013-02-08 04:11:00,30.0,21.0,-100.00,WNW,295,7.0,12.0,68,-99.99,,,-99.99,,2013-02-08 12:11:00,
2013-02-08 05:01:00,29.0,21.0,-100.00,NNW,345,5.0,13.0,71,-99.99,,,-99.99,,2013-02-08 13:01:00,
2013-02-08 05:10:00,29.0,21.0,-100.00,NW,315,6.0,10.0,71,-99.99,,,-99.99,,2013-02-08 13:10:00,
2013-02-08 06:02:00,29.0,21.0,-100.00,NW,315,6.0,10.0,71,-99.99,,,-99.99,,2013-02-08 14:02:00,
2013-02-08 07:02:00,28.0,21.0,-100.00,North,350,5.0,9.0,74,-99.99,,,-99.99,,2013-02-08 15:02:00,
2013-02-08 07:10:00,28.0,21.0,-100.00,NW,325,2.0,9.0,74,-99.99,,,-99.99,,2013-02-08 15:10:00,
2013-02-08 07:11:00,28.0,21.0,-100.00,North,350,5.0,9.0,74,-99.99,,,-99.99,,2013-02-08 15:11:00,
2013-02-08 08:01:00,28.0,21.0,-100.00,NW,325,2.0,9.0,74,-99.99,,,-99.99,,2013-02-08 16:01:00,
2013-02-08 09:03:00,29.0,21.0,-100.00,North,355,2.0,10.0,71,-99.99,,,-99.99,,2013-02-08 17:03:00,
2013-02-08 09:12:00,29.0,21.0,-100.00,North,355,2.0,10.0,71,-99.99,,,-99.99,,2013-02-08 17:12:00,
2013-02-08 09:20:00,32.0,22.0,-100.00,NW,325,5.0,7.0,66,-99.99,,,-99.99,,2013-02-08 17:20:00,
2013-02-08 10:02:00,32.0,22.0,-100.00,NW,325,5.0,7.0,66,-99.99,,,-99.99,,2013-02-08 18:02:00,
2013-02-08 10:10:00,36.0,21.0,-100.00,NW,320,5.0,8.0,54,-99.99,,,-99.99,,2013-02-08 18:10:00,
2013-02-08 10:12:00,32.0,22.0,-100.00,NW,325,5.0,7.0,66,-99.99,,,-99.99,,2013-02-08 18:12:00,
2013-02-08 11:02:00,36.0,21.0,-100.00,NW,320,5.0,8.0,54,-99.99,,,-99.99,,2013-02-08 19:02:00,
2013-02-08 12:01:00,43.0,23.0,-100.00,NW,325,6.0,9.0,44,-99.99,,,-99.99,,2013-02-08 20:01:00,
2013-02-08 12:11:00,43.0,23.0,-100.00,NW,325,6.0,9.0,44,-99.99,,,-99.99,,2013-02-08 20:11:00,
2013-02-08 13:01:00,45.0,21.0,-100.00,NW,325,5.0,12.0,38,-99.99,,,-99.99,,2013-02-08 21:01:00,
2013-02-08 13:10:00,47.0,21.0,-100.00,NW,310,6.0,13.0,35,-99.99,,,-99.99,,2013-02-08 21:10:00,
2013-02-08 14:01:00,47.0,21.0,-100.00,NW,310,6.0,13.0,35,-99.99,,,-99.99,,2013-02-08 22:01:00,
2013-02-08 15:01:00,49.0,21.0,-100.00,WNW,285,6.0,9.0,32,-99.99,,,-99.99,,2013-02-08 23:01:00,
2013-02-08 15:10:00,49.0,20.0,-100.00,WNW,285,5.0,7.0,31,-99.99,,,-99.99,,2013-02-08 23:10:00,
2013-02-08 15:11:00,49.0,21.0,-100.00,WNW,285,6.0,9.0,32,-99.99,,,-99.99,,2013-02-08 23:11:00,
2013-02-08 16:02:00,49.0,20.0,-100.00,WNW,285,5.0,7.0,31,-99.99,,,-99.99,,2013-02-09 00:02:00,
2013-02-08 17:01:00,46.0,20.0,-100.00,WNW,300,7.0,10.0,35,-99.99,,,-99.99,,2013-02-09 01:01:00,
2013-02-08 17:11:00,46.0,20.0,-100.00,WNW,300,7.0,10.0,35,-99.99,,,-99.99,,2013-02-09 01:11:00,
2013-02-08 18:01:00,44.0,19.0,-100.00,WNW,285,9.0,13.0,36,-99.99,,,-99.99,,2013-02-09 02:01:00,
2013-02-08 18:10:00,41.0,19.0,-100.00,NW,305,6.0,12.0,40,-99.99,,,-99.99,,2013-02-09 02:10:00,
2013-02-08 19:01:00,41.0,19.0,-100.00,NW,305,6.0,12.0,40,-99.99,,,-99.99,,2013-02-09 03:01:00,
2013-02-08 20:02:00,36.0,21.0,-100.00,NNW,330,2.0,6.0,54,-99.99,,,-99.99,,2013-02-09 04:02:00,
2013-02-08 20:10:00,36.0,21.0,-100.00,WNW,290,8.0,13.0,54,-99.99,,,-99.99,,2013-02-09 04:10:00,
2013-02-08 20:11:00,36.0,21.0,-100.00,NNW,330,2.0,6.0,54,-99.99,,,-99.99,,2013-02-09 04:11:00,
2013-02-08 21:02:00,36.0,21.0,-100.00,WNW,290,8.0,13.0,54,-99.99,,,-99.99,,2013-02-09 05:02:00,
2013-02-08 22:01:00,35.0,21.0,-100.00,NW,310,5.0,10.0,56,-99.99,,,-99.99,,2013-02-09 06:01:00,
2013-02-08 22:11:00,35.0,21.0,-100.00,NW,310,5.0,10.0,56,-99.99,,,-99.99,,2013-02-09 06:11:00,
2013-02-08 22:20:00,34.0,21.0,-100.00,NW,305,9.0,13.0,58,-99.99,,,-99.99,,2013-02-09 06:20:00,
2013-02-08 23:01:00,34.0,21.0,-100.00,NW,305,9.0,13.0,58,-99.99,,,-99.99,,2013-02-09 07:01:00,
2013-02-08 23:10:00,33.0,21.0,-100.00,NW,305,6.0,9.0,60,-99.99,,,-99.99,,2013-02-09 07:10:00,
2013-02-08 23:11:00,34.0,21.0,-100.00,NW,305,9.0,13.0,58,-99.99,,,-99.99,,2013-02-09 07:11:00,